ΕΜΥ, Εθνική Μετεωρολογική Υπηρεσία - Δελτία Καιρού, Προγνώσεις

ΑΕΡΟΝΑΥΤΙΛΙΑ

GREEK AIRPORTS CODES

LGAT 251400Z AUTO 18004KT 010V250 //// // ////// 18/08 Q1013 RE//=

EUROPEAN AIRPORTS CODES

LFPO 251400Z 16010KT 9999 -RA BKN025 08/05 Q0995 NOSIG=